sensor_id;sensor_type;location;lat;lon;timestamp;temperature;humidity
79439;DHT22;68889;48.232;10.110;2023-09-08T00:02:03;14.80;95.60
79439;DHT22;68889;48.232;10.110;2023-09-08T00:04:29;14.70;94.50
79439;DHT22;68889;48.232;10.110;2023-09-08T00:06:54;14.70;95.20
79439;DHT22;68889;48.232;10.110;2023-09-08T00:09:20;14.70;94.20
79439;DHT22;68889;48.232;10.110;2023-09-08T00:11:45;14.70;94.60
79439;DHT22;68889;48.232;10.110;2023-09-08T00:14:11;14.70;94.90
79439;DHT22;68889;48.232;10.110;2023-09-08T00:16:37;14.60;94.30
79439;DHT22;68889;48.232;10.110;2023-09-08T00:19:04;14.60;94.70
79439;DHT22;68889;48.232;10.110;2023-09-08T00:21:30;14.60;95.10
79439;DHT22;68889;48.232;10.110;2023-09-08T00:23:55;14.60;95.00
79439;DHT22;68889;48.232;10.110;2023-09-08T00:26:22;14.50;95.80
79439;DHT22;68889;48.232;10.110;2023-09-08T00:28:48;14.50;94.50
79439;DHT22;68889;48.232;10.110;2023-09-08T00:31:13;14.50;94.60
79439;DHT22;68889;48.232;10.110;2023-09-08T00:33:39;14.50;94.40
79439;DHT22;68889;48.232;10.110;2023-09-08T00:36:06;14.50;95.50
79439;DHT22;68889;48.232;10.110;2023-09-08T00:38:31;14.40;94.30
79439;DHT22;68889;48.232;10.110;2023-09-08T00:40:57;14.40;95.10
79439;DHT22;68889;48.232;10.110;2023-09-08T00:43:24;14.40;95.90
79439;DHT22;68889;48.232;10.110;2023-09-08T00:45:50;14.40;96.60
79439;DHT22;68889;48.232;10.110;2023-09-08T00:48:15;14.30;95.80
79439;DHT22;68889;48.232;10.110;2023-09-08T00:50:41;14.30;95.20
79439;DHT22;68889;48.232;10.110;2023-09-08T00:53:07;14.30;94.70
79439;DHT22;68889;48.232;10.110;2023-09-08T00:55:34;14.30;94.60
79439;DHT22;68889;48.232;10.110;2023-09-08T00:58:02;14.30;95.40
79439;DHT22;68889;48.232;10.110;2023-09-08T03:07:18;13.40;97.70
79439;DHT22;68889;48.232;10.110;2023-09-08T03:09:43;13.40;95.50
79439;DHT22;68889;48.232;10.110;2023-09-08T03:12:09;13.40;95.80
79439;DHT22;68889;48.232;10.110;2023-09-08T03:14:34;13.30;96.30
79439;DHT22;68889;48.232;10.110;2023-09-08T03:17:00;13.30;95.20
79439;DHT22;68889;48.232;10.110;2023-09-08T03:19:25;13.30;97.40
79439;DHT22;68889;48.232;10.110;2023-09-08T03:21:51;13.30;96.60
79439;DHT22;68889;48.232;10.110;2023-09-08T03:24:17;13.30;96.90
79439;DHT22;68889;48.232;10.110;2023-09-08T03:26:42;13.30;96.50
79439;DHT22;68889;48.232;10.110;2023-09-08T03:29:09;13.30;96.90
79439;DHT22;68889;48.232;10.110;2023-09-08T03:31:34;13.30;96.60
79439;DHT22;68889;48.232;10.110;2023-09-08T03:34:00;13.30;97.40
79439;DHT22;68889;48.232;10.110;2023-09-08T03:36:26;13.30;97.40
79439;DHT22;68889;48.232;10.110;2023-09-08T03:38:51;13.30;97.60
79439;DHT22;68889;48.232;10.110;2023-09-08T03:41:17;13.20;99.20
79439;DHT22;68889;48.232;10.110;2023-09-08T03:43:43;13.20;98.10
79439;DHT22;68889;48.232;10.110;2023-09-08T03:46:08;13.20;97.50
79439;DHT22;68889;48.232;10.110;2023-09-08T03:48:34;13.20;97.10
79439;DHT22;68889;48.232;10.110;2023-09-08T03:50:59;13.20;97.40
79439;DHT22;68889;48.232;10.110;2023-09-08T03:53:25;13.20;96.80
79439;DHT22;68889;48.232;10.110;2023-09-08T03:55:51;13.20;96.40
79439;DHT22;68889;48.232;10.110;2023-09-08T03:58:16;13.20;97.50
79439;DHT22;68889;48.232;10.110;2023-09-08T04:00:42;13.20;95.90
79439;DHT22;68889;48.232;10.110;2023-09-08T04:03:08;13.10;97.30
79439;DHT22;68889;48.232;10.110;2023-09-08T04:05:33;13.10;97.40
79439;DHT22;68889;48.232;10.110;2023-09-08T04:07:59;13.10;96.70
79439;DHT22;68889;48.232;10.110;2023-09-08T04:10:25;13.10;97.00
79439;DHT22;68889;48.232;10.110;2023-09-08T04:12:50;13.10;97.00
79439;DHT22;68889;48.232;10.110;2023-09-08T04:15:16;13.10;96.90
79439;DHT22;68889;48.232;10.110;2023-09-08T04:17:42;13.10;97.00
79439;DHT22;68889;48.232;10.110;2023-09-08T04:20:08;13.10;96.60
79439;DHT22;68889;48.232;10.110;2023-09-08T04:22:34;13.10;96.60
79439;DHT22;68889;48.232;10.110;2023-09-08T04:25:00;13.10;96.60
79439;DHT22;68889;48.232;10.110;2023-09-08T04:27:26;13.10;97.30
79439;DHT22;68889;48.232;10.110;2023-09-08T04:29:52;13.10;96.90
79439;DHT22;68889;48.232;10.110;2023-09-08T04:32:19;13.00;97.00
79439;DHT22;68889;48.232;10.110;2023-09-08T04:34:44;13.00;95.80
79439;DHT22;68889;48.232;10.110;2023-09-08T04:37:11;13.00;97.30
79439;DHT22;68889;48.232;10.110;2023-09-08T04:39:38;13.10;97.60
79439;DHT22;68889;48.232;10.110;2023-09-08T04:42:04;13.10;96.50
79439;DHT22;68889;48.232;10.110;2023-09-08T04:44:29;13.10;97.30
79439;DHT22;68889;48.232;10.110;2023-09-08T04:46:55;13.00;98.30
79439;DHT22;68889;48.232;10.110;2023-09-08T04:49:21;13.10;98.30
79439;DHT22;68889;48.232;10.110;2023-09-08T04:51:46;13.00;98.80
79439;DHT22;68889;48.232;10.110;2023-09-08T04:54:12;13.00;97.10
79439;DHT22;68889;48.232;10.110;2023-09-08T04:56:41;13.10;97.70
79439;DHT22;68889;48.232;10.110;2023-09-08T04:59:07;13.00;98.50
79439;DHT22;68889;48.232;10.110;2023-09-08T05:01:32;13.10;97.70
79439;DHT22;68889;48.232;10.110;2023-09-08T05:03:59;13.10;97.20
79439;DHT22;68889;48.232;10.110;2023-09-08T05:06:27;13.10;96.80
79439;DHT22;68889;48.232;10.110;2023-09-08T05:08:53;13.10;97.30
79439;DHT22;68889;48.232;10.110;2023-09-08T05:11:18;13.10;97.90
79439;DHT22;68889;48.232;10.110;2023-09-08T05:13:45;13.10;96.70
79439;DHT22;68889;48.232;10.110;2023-09-08T05:16:11;13.10;97.30
79439;DHT22;68889;48.232;10.110;2023-09-08T05:18:40;13.10;98.00
79439;DHT22;68889;48.232;10.110;2023-09-08T05:21:07;13.10;97.40
79439;DHT22;68889;48.232;10.110;2023-09-08T05:23:33;13.20;97.10
79439;DHT22;68889;48.232;10.110;2023-09-08T05:26:00;13.20;97.60
79439;DHT22;68889;48.232;10.110;2023-09-08T05:28:26;13.20;96.70
79439;DHT22;68889;48.232;10.110;2023-09-08T05:30:52;13.20;97.30
79439;DHT22;68889;48.232;10.110;2023-09-08T05:33:18;13.30;97.30
79439;DHT22;68889;48.232;10.110;2023-09-08T05:35:45;13.30;97.00
79439;DHT22;68889;48.232;10.110;2023-09-08T05:38:11;13.30;96.40
79439;DHT22;68889;48.232;10.110;2023-09-08T05:40:36;13.30;96.80
79439;DHT22;68889;48.232;10.110;2023-09-08T05:43:02;13.40;97.00
79439;DHT22;68889;48.232;10.110;2023-09-08T05:45:27;13.40;96.20
79439;DHT22;68889;48.232;10.110;2023-09-08T05:47:53;13.50;96.90
79439;DHT22;68889;48.232;10.110;2023-09-08T05:50:20;13.50;97.10
79439;DHT22;68889;48.232;10.110;2023-09-08T05:52:45;13.50;96.30
79439;DHT22;68889;48.232;10.110;2023-09-08T05:55:11;13.60;95.90
79439;DHT22;68889;48.232;10.110;2023-09-08T05:57:37;13.60;96.90
79439;DHT22;68889;48.232;10.110;2023-09-08T06:00:04;13.70;97.00
79439;DHT22;68889;48.232;10.110;2023-09-08T06:02:30;13.70;97.90
79439;DHT22;68889;48.232;10.110;2023-09-08T06:04:55;13.80;97.20
79439;DHT22;68889;48.232;10.110;2023-09-08T06:07:21;13.90;96.80
79439;DHT22;68889;48.232;10.110;2023-09-08T06:09:47;13.90;98.10
79439;DHT22;68889;48.232;10.110;2023-09-08T06:12:12;14.00;97.60
79439;DHT22;68889;48.232;10.110;2023-09-08T06:14:38;14.10;97.40
79439;DHT22;68889;48.232;10.110;2023-09-08T06:17:04;14.10;97.80
79439;DHT22;68889;48.232;10.110;2023-09-08T06:19:29;14.20;98.10
79439;DHT22;68889;48.232;10.110;2023-09-08T06:21:55;14.30;98.10
79439;DHT22;68889;48.232;10.110;2023-09-08T06:24:20;14.50;97.40
79439;DHT22;68889;48.232;10.110;2023-09-08T06:26:46;14.60;97.90
79439;DHT22;68889;48.232;10.110;2023-09-08T06:29:11;14.80;96.50
79439;DHT22;68889;48.232;10.110;2023-09-08T06:31:37;14.90;96.10
79439;DHT22;68889;48.232;10.110;2023-09-08T06:34:02;15.10;95.80
79439;DHT22;68889;48.232;10.110;2023-09-08T06:36:28;15.20;96.60
79439;DHT22;68889;48.232;10.110;2023-09-08T06:38:53;15.30;95.90
79439;DHT22;68889;48.232;10.110;2023-09-08T06:41:19;15.50;95.70
79439;DHT22;68889;48.232;10.110;2023-09-08T06:43:44;15.60;94.90
79439;DHT22;68889;48.232;10.110;2023-09-08T06:46:10;15.80;94.90
79439;DHT22;68889;48.232;10.110;2023-09-08T06:48:36;15.90;93.90
79439;DHT22;68889;48.232;10.110;2023-09-08T06:51:01;16.10;93.50
79439;DHT22;68889;48.232;10.110;2023-09-08T06:53:27;16.20;94.30
79439;DHT22;68889;48.232;10.110;2023-09-08T06:55:52;16.30;95.40
79439;DHT22;68889;48.232;10.110;2023-09-08T06:58:18;16.40;94.70
79439;DHT22;68889;48.232;10.110;2023-09-08T07:00:43;16.60;93.40
79439;DHT22;68889;48.232;10.110;2023-09-08T07:03:09;16.70;94.50
79439;DHT22;68889;48.232;10.110;2023-09-08T07:05:35;16.80;94.60
79439;DHT22;68889;48.232;10.110;2023-09-08T07:08:01;16.90;93.60
79439;DHT22;68889;48.232;10.110;2023-09-08T07:10:27;17.00;93.00
79439;DHT22;68889;48.232;10.110;2023-09-08T07:12:54;17.20;91.90
79439;DHT22;68889;48.232;10.110;2023-09-08T07:15:21;17.30;91.20
79439;DHT22;68889;48.232;10.110;2023-09-08T07:17:46;17.40;91.00
79439;DHT22;68889;48.232;10.110;2023-09-08T07:20:15;17.60;91.60
79439;DHT22;68889;48.232;10.110;2023-09-08T07:22:41;17.70;91.60
79439;DHT22;68889;48.232;10.110;2023-09-08T07:25:07;17.80;91.70
79439;DHT22;68889;48.232;10.110;2023-09-08T07:27:33;17.90;91.10
79439;DHT22;68889;48.232;10.110;2023-09-08T07:29:58;18.10;89.90
79439;DHT22;68889;48.232;10.110;2023-09-08T07:32:25;18.20;89.30
79439;DHT22;68889;48.232;10.110;2023-09-08T07:34:51;18.30;90.10
79439;DHT22;68889;48.232;10.110;2023-09-08T07:37:21;18.50;90.40
79439;DHT22;68889;48.232;10.110;2023-09-08T07:39:48;18.50;89.60
79439;DHT22;68889;48.232;10.110;2023-09-08T07:42:13;18.70;89.40
79439;DHT22;68889;48.232;10.110;2023-09-08T07:44:39;18.90;89.90
79439;DHT22;68889;48.232;10.110;2023-09-08T07:47:05;19.00;90.10
79439;DHT22;68889;48.232;10.110;2023-09-08T07:49:32;19.20;89.30
79439;DHT22;68889;48.232;10.110;2023-09-08T07:51:58;19.30;89.00
79439;DHT22;68889;48.232;10.110;2023-09-08T07:54:25;19.50;86.00
79439;DHT22;68889;48.232;10.110;2023-09-08T07:56:51;19.60;85.30
79439;DHT22;68889;48.232;10.110;2023-09-08T07:59:17;19.70;87.40
79439;DHT22;68889;48.232;10.110;2023-09-08T08:01:43;19.80;88.00
79439;DHT22;68889;48.232;10.110;2023-09-08T08:04:08;19.80;86.70
79439;DHT22;68889;48.232;10.110;2023-09-08T08:06:34;20.00;87.20
79439;DHT22;68889;48.232;10.110;2023-09-08T08:09:02;20.20;85.10
79439;DHT22;68889;48.232;10.110;2023-09-08T08:11:27;20.40;86.00
79439;DHT22;68889;48.232;10.110;2023-09-08T08:13:53;20.50;84.20
79439;DHT22;68889;48.232;10.110;2023-09-08T08:16:19;20.70;83.40
79439;DHT22;68889;48.232;10.110;2023-09-08T08:18:47;20.70;83.60
79439;DHT22;68889;48.232;10.110;2023-09-08T08:21:12;20.90;84.80
79439;DHT22;68889;48.232;10.110;2023-09-08T08:23:38;21.10;83.10
79439;DHT22;68889;48.232;10.110;2023-09-08T08:26:03;21.10;82.30
79439;DHT22;68889;48.232;10.110;2023-09-08T08:28:29;21.20;81.50
79439;DHT22;68889;48.232;10.110;2023-09-08T08:30:55;21.30;83.50
79439;DHT22;68889;48.232;10.110;2023-09-08T08:33:22;21.50;83.90
79439;DHT22;68889;48.232;10.110;2023-09-08T08:35:53;21.70;82.40
79439;DHT22;68889;48.232;10.110;2023-09-08T08:38:19;21.70;79.90
79439;DHT22;68889;48.232;10.110;2023-09-08T08:40:47;21.80;81.80
79439;DHT22;68889;48.232;10.110;2023-09-08T08:43:13;21.90;80.60
79439;DHT22;68889;48.232;10.110;2023-09-08T08:45:41;22.10;80.40
79439;DHT22;68889;48.232;10.110;2023-09-08T08:48:07;22.30;79.60
79439;DHT22;68889;48.232;10.110;2023-09-08T08:50:35;22.40;83.30
79439;DHT22;68889;48.232;10.110;2023-09-08T08:53:02;22.70;79.90
79439;DHT22;68889;48.232;10.110;2023-09-08T08:55:30;23.00;79.70
79439;DHT22;68889;48.232;10.110;2023-09-08T08:58:02;23.20;79.40
79439;DHT22;68889;48.232;10.110;2023-09-08T09:00:28;23.40;79.30
79439;DHT22;68889;48.232;10.110;2023-09-08T09:02:55;23.50;79.80
79439;DHT22;68889;48.232;10.110;2023-09-08T09:05:23;23.60;78.10
79439;DHT22;68889;48.232;10.110;2023-09-08T09:07:50;23.80;76.00
79439;DHT22;68889;48.232;10.110;2023-09-08T09:10:17;23.90;76.00
79439;DHT22;68889;48.232;10.110;2023-09-08T09:12:43;24.10;77.30
79439;DHT22;68889;48.232;10.110;2023-09-08T09:15:09;24.40;77.60
79439;DHT22;68889;48.232;10.110;2023-09-08T09:17:37;24.60;74.60
79439;DHT22;68889;48.232;10.110;2023-09-08T09:20:16;24.80;73.40
79439;DHT22;68889;48.232;10.110;2023-09-08T09:22:44;24.80;73.50
79439;DHT22;68889;48.232;10.110;2023-09-08T09:25:24;24.80;73.50
79439;DHT22;68889;48.232;10.110;2023-09-08T09:28:01;24.90;74.10
79439;DHT22;68889;48.232;10.110;2023-09-08T09:30:28;25.00;73.00
79439;DHT22;68889;48.232;10.110;2023-09-08T09:33:10;25.10;73.70
79439;DHT22;68889;48.232;10.110;2023-09-08T09:35:40;25.30;74.50
79439;DHT22;68889;48.232;10.110;2023-09-08T09:38:06;25.60;73.00
79439;DHT22;68889;48.232;10.110;2023-09-08T09:40:32;25.80;73.40
79439;DHT22;68889;48.232;10.110;2023-09-08T09:42:58;26.00;72.50
79439;DHT22;68889;48.232;10.110;2023-09-08T09:45:27;26.20;71.60
79439;DHT22;68889;48.232;10.110;2023-09-08T09:47:55;26.40;70.40
79439;DHT22;68889;48.232;10.110;2023-09-08T09:50:32;26.60;71.30
79439;DHT22;68889;48.232;10.110;2023-09-08T09:53:00;26.80;71.20
79439;DHT22;68889;48.232;10.110;2023-09-08T09:55:27;27.00;71.00
79439;DHT22;68889;48.232;10.110;2023-09-08T09:57:57;27.20;71.40
79439;DHT22;68889;48.232;10.110;2023-09-08T10:00:27;27.40;69.70
79439;DHT22;68889;48.232;10.110;2023-09-08T10:02:54;27.70;70.40
79439;DHT22;68889;48.232;10.110;2023-09-08T10:05:20;27.80;69.70
79439;DHT22;68889;48.232;10.110;2023-09-08T10:07:47;28.00;70.00
79439;DHT22;68889;48.232;10.110;2023-09-08T10:10:15;28.00;68.30
79439;DHT22;68889;48.232;10.110;2023-09-08T10:12:44;28.00;67.60
79439;DHT22;68889;48.232;10.110;2023-09-08T10:15:13;28.20;66.50
79439;DHT22;68889;48.232;10.110;2023-09-08T10:17:44;28.30;67.70
79439;DHT22;68889;48.232;10.110;2023-09-08T10:20:10;28.30;65.80
79439;DHT22;68889;48.232;10.110;2023-09-08T10:22:42;28.40;69.20
79439;DHT22;68889;48.232;10.110;2023-09-08T10:25:09;28.60;66.10
79439;DHT22;68889;48.232;10.110;2023-09-08T10:27:35;28.80;66.50
79439;DHT22;68889;48.232;10.110;2023-09-08T10:30:03;29.00;67.20
79439;DHT22;68889;48.232;10.110;2023-09-08T10:32:31;29.30;66.90
79439;DHT22;68889;48.232;10.110;2023-09-08T10:34:59;29.50;65.90
79439;DHT22;68889;48.232;10.110;2023-09-08T10:37:26;29.70;65.30
79439;DHT22;68889;48.232;10.110;2023-09-08T10:39:57;29.80;62.50
79439;DHT22;68889;48.232;10.110;2023-09-08T10:42:40;30.00;65.30
79439;DHT22;68889;48.232;10.110;2023-09-08T10:45:18;29.90;63.00
79439;DHT22;68889;48.232;10.110;2023-09-08T10:48:05;29.90;64.80
79439;DHT22;68889;48.232;10.110;2023-09-08T10:50:33;30.00;64.70
79439;DHT22;68889;48.232;10.110;2023-09-08T10:55:39;30.30;65.90
79439;DHT22;68889;48.232;10.110;2023-09-08T10:58:06;30.40;63.50
79439;DHT22;68889;48.232;10.110;2023-09-08T11:00:43;30.60;63.70
79439;DHT22;68889;48.232;10.110;2023-09-08T11:03:09;30.80;60.80
79439;DHT22;68889;48.232;10.110;2023-09-08T11:05:35;30.80;62.20
79439;DHT22;68889;48.232;10.110;2023-09-08T11:08:01;30.70;62.70
79439;DHT22;68889;48.232;10.110;2023-09-08T11:10:27;30.80;63.00
79439;DHT22;68889;48.232;10.110;2023-09-08T11:12:54;31.00;63.40
79439;DHT22;68889;48.232;10.110;2023-09-08T11:15:20;31.20;62.70
79439;DHT22;68889;48.232;10.110;2023-09-08T11:17:46;31.20;61.50
79439;DHT22;68889;48.232;10.110;2023-09-08T11:20:16;31.20;60.00
79439;DHT22;68889;48.232;10.110;2023-09-08T11:22:43;31.30;62.50
79439;DHT22;68889;48.232;10.110;2023-09-08T11:25:09;31.40;62.20
79439;DHT22;68889;48.232;10.110;2023-09-08T11:27:38;31.60;60.60
79439;DHT22;68889;48.232;10.110;2023-09-08T11:30:12;31.70;61.60
79439;DHT22;68889;48.232;10.110;2023-09-08T11:32:38;31.90;60.10
79439;DHT22;68889;48.232;10.110;2023-09-08T11:35:09;32.10;60.60
79439;DHT22;68889;48.232;10.110;2023-09-08T11:37:39;32.10;59.10
79439;DHT22;68889;48.232;10.110;2023-09-08T11:40:06;32.20;61.50
79439;DHT22;68889;48.232;10.110;2023-09-08T11:42:38;32.40;60.40
79439;DHT22;68889;48.232;10.110;2023-09-08T11:45:12;32.50;59.30
79439;DHT22;68889;48.232;10.110;2023-09-08T11:47:40;32.30;58.40
79439;DHT22;68889;48.232;10.110;2023-09-08T11:50:07;31.90;60.90
79439;DHT22;68889;48.232;10.110;2023-09-08T11:52:33;32.00;60.00
79439;DHT22;68889;48.232;10.110;2023-09-08T11:54:59;32.00;60.90
79439;DHT22;68889;48.232;10.110;2023-09-08T11:57:25;31.90;60.30
79439;DHT22;68889;48.232;10.110;2023-09-08T11:59:51;31.90;60.70
79439;DHT22;68889;48.232;10.110;2023-09-08T12:02:17;32.00;60.80
79439;DHT22;68889;48.232;10.110;2023-09-08T12:04:43;32.20;59.40
79439;DHT22;68889;48.232;10.110;2023-09-08T12:07:12;32.50;60.90
79439;DHT22;68889;48.232;10.110;2023-09-08T12:09:42;32.80;59.80
79439;DHT22;68889;48.232;10.110;2023-09-08T12:12:16;33.00;59.40
79439;DHT22;68889;48.232;10.110;2023-09-08T12:14:42;33.00;57.30
79439;DHT22;68889;48.232;10.110;2023-09-08T12:17:08;32.80;58.30
79439;DHT22;68889;48.232;10.110;2023-09-08T12:19:34;32.90;60.60
79439;DHT22;68889;48.232;10.110;2023-09-08T12:22:03;33.10;59.90
79439;DHT22;68889;48.232;10.110;2023-09-08T12:24:49;33.40;59.50
79439;DHT22;68889;48.232;10.110;2023-09-08T12:27:16;33.60;58.70
79439;DHT22;68889;48.232;10.110;2023-09-08T12:29:52;33.70;57.50
79439;DHT22;68889;48.232;10.110;2023-09-08T12:32:18;33.80;58.60
79439;DHT22;68889;48.232;10.110;2023-09-08T12:34:43;33.90;58.30
79439;DHT22;68889;48.232;10.110;2023-09-08T12:37:10;33.80;56.50
79439;DHT22;68889;48.232;10.110;2023-09-08T12:39:38;33.50;56.20
79439;DHT22;68889;48.232;10.110;2023-09-08T12:42:37;33.40;56.70
79439;DHT22;68889;48.232;10.110;2023-09-08T12:45:03;33.50;58.10
79439;DHT22;68889;48.232;10.110;2023-09-08T12:47:29;33.50;58.10
79439;DHT22;68889;48.232;10.110;2023-09-08T12:49:54;33.50;58.40
79439;DHT22;68889;48.232;10.110;2023-09-08T12:52:21;33.60;58.70
79439;DHT22;68889;48.232;10.110;2023-09-08T12:54:46;33.60;56.80
79439;DHT22;68889;48.232;10.110;2023-09-08T12:57:12;33.60;57.30
79439;DHT22;68889;48.232;10.110;2023-09-08T12:59:37;33.70;58.50
79439;DHT22;68889;48.232;10.110;2023-09-08T13:02:03;33.60;56.60
79439;DHT22;68889;48.232;10.110;2023-09-08T13:04:29;33.60;56.10
79439;DHT22;68889;48.232;10.110;2023-09-08T13:06:54;33.80;57.10
79439;DHT22;68889;48.232;10.110;2023-09-08T13:09:20;34.00;59.00
79439;DHT22;68889;48.232;10.110;2023-09-08T13:11:46;34.20;57.70
79439;DHT22;68889;48.232;10.110;2023-09-08T13:14:12;34.30;55.80
79439;DHT22;68889;48.232;10.110;2023-09-08T13:16:37;34.40;56.00
79439;DHT22;68889;48.232;10.110;2023-09-08T13:19:03;34.60;57.00
79439;DHT22;68889;48.232;10.110;2023-09-08T13:21:29;34.80;56.20
79439;DHT22;68889;48.232;10.110;2023-09-08T13:23:54;34.70;52.00
79439;DHT22;68889;48.232;10.110;2023-09-08T13:26:20;34.50;53.80
79439;DHT22;68889;48.232;10.110;2023-09-08T13:28:45;34.40;53.00
79439;DHT22;68889;48.232;10.110;2023-09-08T13:31:11;34.20;56.40
79439;DHT22;68889;48.232;10.110;2023-09-08T13:33:36;34.10;54.70
79439;DHT22;68889;48.232;10.110;2023-09-08T13:36:02;34.10;54.20
79439;DHT22;68889;48.232;10.110;2023-09-08T13:38:27;34.10;53.20
79439;DHT22;68889;48.232;10.110;2023-09-08T13:40:53;34.10;56.00
79439;DHT22;68889;48.232;10.110;2023-09-08T13:43:20;33.90;56.10
79439;DHT22;68889;48.232;10.110;2023-09-08T13:45:45;33.80;58.00
79439;DHT22;68889;48.232;10.110;2023-09-08T13:48:11;33.30;59.20
79439;DHT22;68889;48.232;10.110;2023-09-08T13:50:38;33.10;58.20
79439;DHT22;68889;48.232;10.110;2023-09-08T13:53:05;33.30;57.10
79439;DHT22;68889;48.232;10.110;2023-09-08T13:55:30;33.60;58.20
79439;DHT22;68889;48.232;10.110;2023-09-08T13:57:56;33.80;56.70
79439;DHT22;68889;48.232;10.110;2023-09-08T14:00:21;33.70;56.90
79439;DHT22;68889;48.232;10.110;2023-09-08T14:02:47;33.70;58.60
79439;DHT22;68889;48.232;10.110;2023-09-08T14:05:12;33.80;56.20
79439;DHT22;68889;48.232;10.110;2023-09-08T14:07:38;33.90;57.40
79439;DHT22;68889;48.232;10.110;2023-09-08T14:10:04;34.10;56.80
79439;DHT22;68889;48.232;10.110;2023-09-08T14:12:34;34.30;57.70
79439;DHT22;68889;48.232;10.110;2023-09-08T14:14:59;34.50;57.80
79439;DHT22;68889;48.232;10.110;2023-09-08T14:17:25;34.60;57.10
79439;DHT22;68889;48.232;10.110;2023-09-08T14:19:50;34.60;57.30
79439;DHT22;68889;48.232;10.110;2023-09-08T14:22:16;34.60;57.90
79439;DHT22;68889;48.232;10.110;2023-09-08T14:24:42;34.60;55.10
79439;DHT22;68889;48.232;10.110;2023-09-08T14:27:07;34.60;56.30
79439;DHT22;68889;48.232;10.110;2023-09-08T14:29:34;34.70;54.80
79439;DHT22;68889;48.232;10.110;2023-09-08T14:31:59;34.70;55.00
79439;DHT22;68889;48.232;10.110;2023-09-08T14:34:25;34.60;54.60
79439;DHT22;68889;48.232;10.110;2023-09-08T14:36:50;34.60;56.90
79439;DHT22;68889;48.232;10.110;2023-09-08T14:39:16;34.60;54.30
79439;DHT22;68889;48.232;10.110;2023-09-08T14:41:44;34.60;56.90
79439;DHT22;68889;48.232;10.110;2023-09-08T14:44:10;34.70;56.30
79439;DHT22;68889;48.232;10.110;2023-09-08T14:46:35;34.70;55.80
79439;DHT22;68889;48.232;10.110;2023-09-08T14:49:01;34.70;54.10
79439;DHT22;68889;48.232;10.110;2023-09-08T14:51:28;34.60;58.10
79439;DHT22;68889;48.232;10.110;2023-09-08T14:53:53;34.70;57.60
79439;DHT22;68889;48.232;10.110;2023-09-08T14:56:19;34.70;57.70
79439;DHT22;68889;48.232;10.110;2023-09-08T14:58:44;34.70;55.40
79439;DHT22;68889;48.232;10.110;2023-09-08T15:01:10;34.50;54.90
79439;DHT22;68889;48.232;10.110;2023-09-08T15:03:37;34.40;56.00
79439;DHT22;68889;48.232;10.110;2023-09-08T15:06:03;34.30;57.40
79439;DHT22;68889;48.232;10.110;2023-09-08T15:08:28;34.20;56.90
79439;DHT22;68889;48.232;10.110;2023-09-08T15:10:54;34.30;58.80
79439;DHT22;68889;48.232;10.110;2023-09-08T15:13:20;34.30;57.00
79439;DHT22;68889;48.232;10.110;2023-09-08T15:15:46;34.30;57.30
79439;DHT22;68889;48.232;10.110;2023-09-08T15:18:12;34.30;56.40
79439;DHT22;68889;48.232;10.110;2023-09-08T15:20:38;34.30;57.90
79439;DHT22;68889;48.232;10.110;2023-09-08T15:23:04;34.30;57.50
79439;DHT22;68889;48.232;10.110;2023-09-08T15:25:29;34.10;57.10
79439;DHT22;68889;48.232;10.110;2023-09-08T15:27:55;34.00;57.30
79439;DHT22;68889;48.232;10.110;2023-09-08T15:30:20;33.90;56.00
79439;DHT22;68889;48.232;10.110;2023-09-08T15:32:46;33.80;56.20
79439;DHT22;68889;48.232;10.110;2023-09-08T15:35:12;33.90;57.70
79439;DHT22;68889;48.232;10.110;2023-09-08T15:37:37;33.90;57.30
79439;DHT22;68889;48.232;10.110;2023-09-08T15:40:03;34.00;59.40
79439;DHT22;68889;48.232;10.110;2023-09-08T15:42:29;34.00;56.60
79439;DHT22;68889;48.232;10.110;2023-09-08T15:44:55;34.00;56.60
79439;DHT22;68889;48.232;10.110;2023-09-08T15:47:20;33.90;55.90
79439;DHT22;68889;48.232;10.110;2023-09-08T15:49:46;33.80;57.30
79439;DHT22;68889;48.232;10.110;2023-09-08T15:52:12;33.70;57.90
79439;DHT22;68889;48.232;10.110;2023-09-08T15:54:37;33.70;56.00
79439;DHT22;68889;48.232;10.110;2023-09-08T15:57:03;33.70;58.50
79439;DHT22;68889;48.232;10.110;2023-09-08T15:59:32;33.80;57.80
79439;DHT22;68889;48.232;10.110;2023-09-08T16:01:58;33.80;54.90
79439;DHT22;68889;48.232;10.110;2023-09-08T16:04:23;33.90;57.50
79439;DHT22;68889;48.232;10.110;2023-09-08T16:06:49;33.60;55.80
79439;DHT22;68889;48.232;10.110;2023-09-08T16:09:15;33.60;57.70
79439;DHT22;68889;48.232;10.110;2023-09-08T16:11:40;33.60;58.20
79439;DHT22;68889;48.232;10.110;2023-09-08T16:14:06;33.70;59.90
79439;DHT22;68889;48.232;10.110;2023-09-08T16:16:32;33.70;57.30
79439;DHT22;68889;48.232;10.110;2023-09-08T16:18:57;33.60;58.00
79439;DHT22;68889;48.232;10.110;2023-09-08T16:21:23;33.50;56.30
79439;DHT22;68889;48.232;10.110;2023-09-08T16:23:48;33.20;59.20
79439;DHT22;68889;48.232;10.110;2023-09-08T16:26:14;32.90;59.20
79439;DHT22;68889;48.232;10.110;2023-09-08T16:28:39;32.60;61.20
79439;DHT22;68889;48.232;10.110;2023-09-08T16:31:10;32.40;62.80
79439;DHT22;68889;48.232;10.110;2023-09-08T16:33:35;32.30;63.40
79439;DHT22;68889;48.232;10.110;2023-09-08T16:36:01;32.10;62.80
79439;DHT22;68889;48.232;10.110;2023-09-08T16:38:27;31.90;63.70
79439;DHT22;68889;48.232;10.110;2023-09-08T16:40:52;31.80;60.40
79439;DHT22;68889;48.232;10.110;2023-09-08T16:43:18;31.70;62.80
79439;DHT22;68889;48.232;10.110;2023-09-08T16:45:44;31.50;64.30
79439;DHT22;68889;48.232;10.110;2023-09-08T16:48:10;31.30;63.80
79439;DHT22;68889;48.232;10.110;2023-09-08T16:50:35;31.10;63.00
79439;DHT22;68889;48.232;10.110;2023-09-08T16:53:11;30.90;65.30
79439;DHT22;68889;48.232;10.110;2023-09-08T16:55:37;30.80;65.00
79439;DHT22;68889;48.232;10.110;2023-09-08T16:58:03;30.50;66.10
79439;DHT22;68889;48.232;10.110;2023-09-08T17:00:28;30.30;66.40
79439;DHT22;68889;48.232;10.110;2023-09-08T17:02:54;29.90;66.20
79439;DHT22;68889;48.232;10.110;2023-09-08T17:05:19;29.50;67.20
79439;DHT22;68889;48.232;10.110;2023-09-08T17:07:45;29.00;68.30
79439;DHT22;68889;48.232;10.110;2023-09-08T17:10:11;28.50;70.40
79439;DHT22;68889;48.232;10.110;2023-09-08T17:12:36;28.10;70.50
79439;DHT22;68889;48.232;10.110;2023-09-08T17:15:02;27.80;71.90
79439;DHT22;68889;48.232;10.110;2023-09-08T17:17:28;27.40;72.10
79439;DHT22;68889;48.232;10.110;2023-09-08T17:19:54;27.00;73.60
79439;DHT22;68889;48.232;10.110;2023-09-08T17:22:20;26.80;73.90